createdAt,value
2023-04-01T00:01:17.794Z,89.09
2023-04-01T00:03:46.557Z,88.98
2023-04-01T00:06:17.165Z,89.01
2023-04-01T00:08:45.974Z,89.09
2023-04-01T00:11:15.059Z,89.23
2023-04-01T00:13:43.847Z,89.06
2023-04-01T00:16:21.134Z,89.43
2023-04-01T00:18:52.587Z,89.19
2023-04-01T00:21:21.953Z,89.41
2023-04-01T00:23:51.841Z,89.59
2023-04-01T00:26:22.533Z,89.91
2023-04-01T00:28:52.243Z,89.84
2023-04-01T00:31:21.231Z,89.75
2023-04-01T00:33:49.534Z,89.86
2023-04-01T00:36:20.828Z,90.01
2023-04-01T00:38:49.121Z,89.79
2023-04-01T00:41:18.346Z,90.33
2023-04-01T00:43:51.968Z,90.49
2023-04-01T00:46:20.601Z,90.58
2023-04-01T00:48:55.238Z,90.86
2023-04-01T00:51:27.320Z,90.98
2023-04-01T00:53:59.155Z,90.79
2023-04-01T00:56:33.480Z,90.43
2023-04-01T00:59:05.330Z,90.24
2023-04-01T01:01:35.193Z,90.13
2023-04-01T01:04:03.558Z,90.45
2023-04-01T01:06:48.107Z,90.84
2023-04-01T01:09:35.099Z,90.73
2023-04-01T01:12:43.761Z,90.89
2023-04-01T01:15:26.541Z,90.74
2023-04-01T01:18:09.584Z,90.96
2023-04-01T01:21:06.096Z,91.08
2023-04-01T01:23:40.426Z,91.02
2023-04-01T01:26:17.802Z,91.60
2023-04-01T01:29:13.803Z,91.27
2023-04-01T01:31:56.454Z,91.29
2023-04-01T01:34:49.707Z,91.19
2023-04-01T01:37:20.340Z,91.43
2023-04-01T01:40:06.222Z,91.45
2023-04-01T01:42:40.641Z,91.21
2023-04-01T01:45:11.287Z,91.15
2023-04-01T01:47:42.643Z,91.18
2023-04-01T01:50:12.948Z,91.34
2023-04-01T01:52:41.022Z,91.39
2023-04-01T01:55:32.139Z,91.31
2023-04-01T01:58:05.951Z,91.31
2023-04-01T02:00:36.137Z,91.30
2023-04-01T02:03:06.269Z,91.05
2023-04-01T02:05:35.549Z,91.00
2023-04-01T02:08:19.629Z,90.86
2023-04-01T02:10:57.143Z,91.05
2023-04-01T02:13:35.727Z,90.81
2023-04-01T02:16:10.145Z,91.17
2023-04-01T02:18:40.080Z,91.04
2023-04-01T02:21:09.672Z,90.91
2023-04-01T02:23:39.693Z,90.99
2023-04-01T02:26:10.882Z,90.87
2023-04-01T02:28:40.294Z,91.12
2023-04-01T02:31:11.785Z,91.16
2023-04-01T02:33:41.114Z,90.83
2023-04-01T02:36:14.391Z,90.56
2023-04-01T02:38:45.796Z,90.35
2023-04-01T02:41:14.198Z,90.34
2023-04-01T02:43:42.180Z,90.25
2023-04-01T02:46:10.375Z,90.33
2023-04-01T02:48:38.506Z,90.31
2023-04-01T02:51:06.898Z,90.50
2023-04-01T02:53:34.884Z,90.48
2023-04-01T02:56:02.828Z,90.48
2023-04-01T02:58:31.215Z,90.81
2023-04-01T03:00:59.304Z,91.23
2023-04-01T03:03:27.425Z,91.21
2023-04-01T03:05:57.478Z,91.34
2023-04-01T03:08:25.762Z,91.74
2023-04-01T03:10:53.746Z,91.70
2023-04-01T03:13:21.692Z,91.50
2023-04-01T03:15:49.666Z,91.41
2023-04-01T03:18:17.638Z,91.35
2023-04-01T03:20:46.925Z,91.51
2023-04-01T03:23:15.656Z,91.33
2023-04-01T03:25:44.207Z,91.54
2023-04-01T03:28:13.644Z,91.71
2023-04-01T03:30:43.849Z,91.83
2023-04-01T03:33:12.298Z,92.09
2023-04-01T03:35:40.624Z,92.27
2023-04-01T03:38:08.654Z,92.41
2023-04-01T03:40:39.476Z,92.82
2023-04-01T03:43:09.567Z,92.95
2023-04-01T03:45:51.518Z,93.09
2023-04-01T03:48:19.894Z,93.16
2023-04-01T03:50:48.659Z,93.38
2023-04-01T03:53:16.936Z,93.36
2023-04-01T03:55:45.223Z,93.15
2023-04-01T03:58:13.286Z,93.17
2023-04-01T04:00:41.867Z,93.03
2023-04-01T04:03:11.064Z,93.00
2023-04-01T04:05:46.745Z,93.10
2023-04-01T04:08:14.885Z,93.36
2023-04-01T04:10:43.287Z,93.52
2023-04-01T04:13:11.548Z,93.66
2023-04-01T04:15:44.390Z,93.77
2023-04-01T04:18:12.426Z,93.70
2023-04-01T04:20:53.103Z,93.61
2023-04-01T04:23:21.263Z,93.58
2023-04-01T04:26:01.188Z,93.78
2023-04-01T04:28:30.279Z,93.64
2023-04-01T04:30:59.518Z,93.82
2023-04-01T04:33:28.170Z,93.91
2023-04-01T04:35:58.663Z,93.97
2023-04-01T04:38:27.588Z,93.78
2023-04-01T04:40:56.590Z,93.87
2023-04-01T04:43:24.753Z,93.85
2023-04-01T04:45:53.228Z,93.82
2023-04-01T04:48:21.603Z,93.97
2023-04-01T04:50:51.716Z,93.80
2023-04-01T04:53:20.817Z,93.78
2023-04-01T04:55:51.421Z,93.58
2023-04-01T04:58:27.639Z,93.97
2023-04-01T05:00:56.127Z,93.76
2023-04-01T05:03:29.236Z,93.60
2023-04-01T05:05:57.766Z,93.42
2023-04-01T05:08:26.379Z,93.38
2023-04-01T05:10:54.536Z,93.61
2023-04-01T05:13:22.696Z,93.66
2023-04-01T05:15:50.664Z,93.32
2023-04-01T05:18:19.085Z,93.36
2023-04-01T05:20:52.490Z,93.55
2023-04-01T05:23:22.563Z,93.32
2023-04-01T05:25:52.093Z,93.21
2023-04-01T05:28:21.461Z,93.16
2023-04-01T05:30:50.088Z,93.10
2023-04-01T05:33:27.348Z,93.24
2023-04-01T05:35:55.760Z,93.42
2023-04-01T05:38:24.192Z,93.37
2023-04-01T05:40:52.307Z,93.27
2023-04-01T05:43:20.645Z,92.65
2023-04-01T05:45:49.885Z,91.97
2023-04-01T05:48:49.146Z,91.42
2023-04-01T05:51:17.634Z,91.75
2023-04-01T05:53:46.310Z,91.77
2023-04-01T05:56:14.900Z,91.68
2023-04-01T05:58:54.159Z,91.69
2023-04-01T06:01:23.114Z,91.41
2023-04-01T06:03:51.381Z,91.05
2023-04-01T06:06:29.248Z,91.11
2023-04-01T06:09:33.614Z,91.69
2023-04-01T06:12:23.292Z,91.36
2023-04-01T06:15:13.490Z,90.90
2023-04-01T06:17:45.664Z,90.35
2023-04-01T06:20:16.099Z,90.19
2023-04-01T06:23:02.928Z,89.67
2023-04-01T06:25:47.754Z,89.93
2023-04-01T06:28:18.997Z,89.64
2023-04-01T06:31:10.092Z,88.99
2023-04-01T06:34:18.174Z,88.21
2023-04-01T06:37:07.592Z,87.61
2023-04-01T06:39:54.402Z,87.95
2023-04-01T06:42:25.746Z,87.57
2023-04-01T06:45:09.098Z,87.59
2023-04-01T06:48:44.527Z,87.34
2023-04-01T06:52:06.873Z,86.56
2023-04-01T06:55:02.643Z,86.27
2023-04-01T06:57:59.716Z,86.13
2023-04-01T07:00:27.710Z,86.00
2023-04-01T07:03:23.154Z,84.87
2023-04-01T07:05:51.917Z,84.98
2023-04-01T07:08:28.133Z,84.94
2023-04-01T07:11:08.026Z,84.48
2023-04-01T07:14:01.075Z,84.06
2023-04-01T07:16:40.034Z,83.82
2023-04-01T07:19:11.240Z,83.57
2023-04-01T07:22:25.027Z,82.99
2023-04-01T07:25:21.451Z,82.12
2023-04-01T07:28:02.964Z,81.06
2023-04-01T07:30:49.762Z,81.13
2023-04-01T07:33:24.101Z,81.15
2023-04-01T07:36:21.421Z,80.53
2023-04-01T07:39:07.393Z,79.92
2023-04-01T07:42:13.239Z,79.96
2023-04-01T07:45:06.199Z,79.67
2023-04-01T07:47:59.938Z,79.62
2023-04-01T07:50:38.610Z,79.16
2023-04-01T07:53:19.460Z,78.60
2023-04-01T07:56:00.761Z,78.23
2023-04-01T07:58:52.006Z,76.79
2023-04-01T08:01:50.972Z,75.99
2023-04-01T08:04:29.501Z,75.54
2023-04-01T08:07:09.649Z,76.18
2023-04-01T08:09:53.163Z,76.47
2023-04-01T08:13:17.442Z,76.32
2023-04-01T08:16:04.564Z,76.61
2023-04-01T08:18:58.124Z,76.92
2023-04-01T08:21:48.942Z,76.82
2023-04-01T08:24:55.501Z,76.59
2023-04-01T08:28:02.949Z,76.83
2023-04-01T08:30:54.124Z,76.18
2023-04-01T08:33:27.407Z,75.34
2023-04-01T08:36:26.230Z,73.76
2023-04-01T08:39:23.870Z,73.66
2023-04-01T08:42:29.105Z,73.44
2023-04-01T08:45:25.982Z,73.56
2023-04-01T08:48:10.076Z,73.76
2023-04-01T08:50:54.457Z,73.22
2023-04-01T08:53:50.163Z,73.23
2023-04-01T08:56:44.248Z,73.32
2023-04-01T08:59:29.007Z,73.23
2023-04-01T09:02:20.544Z,72.88
2023-04-01T09:05:13.486Z,72.15
2023-04-01T09:07:44.685Z,72.48
2023-04-01T09:10:51.266Z,72.25
2023-04-01T09:13:48.557Z,71.59
2023-04-01T09:16:26.120Z,70.45
2023-04-01T09:19:16.193Z,70.47
2023-04-01T09:21:51.481Z,70.00
2023-04-01T09:24:22.522Z,69.36
2023-04-01T09:27:09.244Z,69.28
2023-04-01T09:30:05.880Z,68.86
2023-04-01T09:33:07.921Z,69.41
2023-04-01T09:36:06.230Z,69.32
2023-04-01T09:39:08.906Z,69.47
2023-04-01T09:42:03.908Z,69.72
2023-04-01T09:44:59.123Z,70.06
2023-04-01T09:48:08.868Z,69.91
2023-04-01T09:50:55.162Z,70.33
2023-04-01T09:53:31.938Z,70.72
2023-04-01T09:56:04.021Z,70.98
2023-04-01T09:58:43.924Z,71.30
2023-04-01T10:02:13.369Z,71.45
2023-04-01T10:04:53.099Z,71.93
2023-04-01T10:07:43.188Z,72.44
2023-04-01T10:10:34.345Z,72.76
2023-04-01T10:13:17.875Z,73.43
2023-04-01T10:15:55.167Z,73.68
2023-04-01T10:18:41.212Z,74.21
2023-04-01T10:21:31.634Z,74.60
2023-04-01T10:24:03.128Z,74.80
2023-04-01T10:26:53.553Z,74.86
2023-04-01T10:30:06.704Z,75.15
2023-04-01T10:32:44.769Z,75.21
2023-04-01T10:35:35.585Z,75.33
2023-04-01T10:38:35.277Z,75.48
2023-04-01T10:41:29.800Z,74.83
2023-04-01T10:44:42.208Z,74.20
2023-04-01T10:47:55.874Z,74.20
2023-04-01T10:50:40.853Z,74.59
2023-04-01T10:53:24.344Z,74.48
2023-04-01T10:56:29.509Z,74.85
2023-04-01T10:59:29.948Z,74.97
2023-04-01T11:02:34.768Z,75.23
2023-04-01T11:05:58.729Z,74.38
2023-04-01T11:08:46.913Z,74.10
2023-04-01T11:11:23.768Z,73.38
2023-04-01T11:14:19.909Z,73.37
2023-04-01T11:16:56.857Z,73.31
2023-04-01T11:19:42.183Z,73.63
2023-04-01T11:22:30.986Z,74.03
2023-04-01T11:25:07.776Z,74.44
2023-04-01T11:27:56.186Z,74.98
2023-04-01T11:30:48.653Z,75.35
2023-04-01T11:33:29.802Z,75.77
2023-04-01T11:36:11.519Z,76.03
2023-04-01T11:39:23.079Z,76.29
2023-04-01T11:42:44.968Z,76.70
2023-04-01T11:45:36.997Z,76.85
2023-04-01T11:48:24.237Z,76.76
2023-04-01T11:50:58.922Z,76.87
2023-04-01T11:53:52.086Z,77.25
2023-04-01T11:56:37.545Z,77.09
2023-04-01T11:59:16.692Z,77.23
2023-04-01T12:01:44.735Z,76.88
2023-04-01T12:04:49.975Z,76.75
2023-04-01T12:07:55.636Z,76.31
2023-04-01T12:10:46.684Z,75.95
2023-04-01T12:13:32.965Z,75.98
2023-04-01T12:16:09.371Z,75.74
2023-04-01T12:18:56.069Z,75.09
2023-04-01T12:22:14.085Z,75.30
2023-04-01T12:25:03.968Z,75.65
2023-04-01T12:27:47.402Z,75.28
2023-04-01T12:30:40.562Z,75.21
2023-04-01T12:33:49.905Z,74.96
2023-04-01T12:36:18.494Z,74.77
2023-04-01T12:39:05.084Z,74.65
2023-04-01T12:41:55.773Z,74.54
2023-04-01T12:44:52.850Z,74.32
2023-04-01T12:47:45.840Z,73.92
2023-04-01T12:50:32.250Z,74.03
2023-04-01T12:53:04.182Z,73.73
2023-04-01T12:55:44.223Z,73.78
2023-04-01T12:58:21.850Z,73.17
2023-04-01T13:01:08.472Z,73.30
2023-04-01T13:03:39.692Z,72.96
2023-04-01T13:06:48.552Z,72.40
2023-04-01T13:09:24.901Z,72.37
2023-04-01T13:12:41.543Z,71.10
2023-04-01T13:15:29.002Z,70.87
2023-04-01T13:18:06.713Z,71.08
2023-04-01T13:20:46.250Z,70.93
2023-04-01T13:23:34.566Z,70.77
2023-04-01T13:26:15.665Z,69.91
2023-04-01T13:29:12.309Z,69.17
2023-04-01T13:31:43.439Z,68.22
2023-04-01T13:34:49.280Z,67.97
2023-04-01T13:37:29.645Z,67.98
2023-04-01T13:40:34.210Z,68.34
2023-04-01T13:43:17.930Z,67.93
2023-04-01T13:46:05.043Z,67.66
2023-04-01T13:48:36.298Z,67.48
2023-04-01T13:51:29.542Z,67.75
2023-04-01T13:54:00.366Z,67.37
2023-04-01T13:56:39.823Z,67.35
2023-04-01T13:59:48.535Z,67.56
2023-04-01T14:03:07.571Z,67.48
2023-04-01T14:05:43.437Z,67.64
2023-04-01T14:08:37.359Z,67.89
2023-04-01T14:11:19.125Z,67.92
2023-04-01T14:14:08.178Z,68.10
2023-04-01T14:17:02.562Z,69.25
2023-04-01T14:19:38.211Z,68.46
2023-04-01T14:22:18.272Z,68.23
2023-04-01T14:25:37.068Z,67.47
2023-04-01T14:28:39.807Z,67.72
2023-04-01T14:31:28.333Z,67.81
2023-04-01T14:34:18.591Z,67.55
2023-04-01T14:37:31.693Z,67.64
2023-04-01T14:40:27.649Z,67.69
2023-04-01T14:42:55.696Z,67.67
2023-04-01T14:46:02.794Z,67.60
2023-04-01T14:48:34.653Z,68.19
2023-04-01T14:51:17.083Z,68.07
2023-04-01T14:54:05.781Z,68.88
2023-04-01T14:57:14.318Z,70.41
2023-04-01T14:59:54.771Z,73.43
2023-04-01T15:02:28.890Z,74.69
2023-04-01T15:05:12.933Z,75.52
2023-04-01T15:07:44.265Z,76.88
2023-04-01T15:10:44.596Z,77.88
2023-04-01T15:13:40.589Z,79.16
2023-04-01T15:16:11.754Z,80.00
2023-04-01T15:18:59.828Z,80.93
2023-04-01T15:22:03.316Z,81.36
2023-04-01T15:24:48.347Z,81.24
2023-04-01T15:27:58.833Z,81.42
2023-04-01T15:30:35.762Z,81.94
2023-04-01T15:33:19.015Z,81.81
2023-04-01T15:36:06.318Z,81.92
2023-04-01T15:38:49.100Z,82.20
2023-04-01T15:41:42.658Z,82.36
2023-04-01T15:44:44.724Z,82.24
2023-04-01T15:47:25.043Z,82.15
2023-04-01T15:49:59.638Z,82.19
2023-04-01T15:52:51.433Z,82.22
2023-04-01T15:55:22.174Z,81.89
2023-04-01T15:58:27.630Z,81.78
2023-04-01T16:01:06.072Z,81.63
2023-04-01T16:03:46.636Z,81.42
2023-04-01T16:06:48.593Z,81.13
2023-04-01T16:09:41.000Z,81.24
2023-04-01T16:12:43.065Z,81.09
2023-04-01T16:15:30.557Z,80.95
2023-04-01T16:18:14.101Z,80.72
2023-04-01T16:21:16.298Z,81.26
2023-04-01T16:23:59.349Z,81.16
2023-04-01T16:26:44.601Z,81.43
2023-04-01T16:29:21.713Z,81.30
2023-04-01T16:32:15.026Z,81.56
2023-04-01T16:35:15.259Z,81.44
2023-04-01T16:37:46.500Z,81.66
2023-04-01T16:40:26.682Z,81.94
2023-04-01T16:43:06.956Z,82.07
2023-04-01T16:45:49.241Z,82.06
2023-04-01T16:48:23.201Z,82.21
2023-04-01T16:51:04.323Z,82.55
2023-04-01T16:53:49.891Z,82.64
2023-04-01T16:56:39.357Z,82.63
2023-04-01T16:59:07.902Z,82.72
2023-04-01T17:01:51.736Z,82.90
2023-04-01T17:04:30.610Z,83.05
2023-04-01T17:07:29.630Z,83.15
2023-04-01T17:10:09.669Z,83.54
2023-04-01T17:13:00.770Z,83.46
2023-04-01T17:15:44.236Z,83.46
2023-04-01T17:18:31.114Z,84.15
2023-04-01T17:21:14.995Z,84.17
2023-04-01T17:23:45.077Z,84.32
2023-04-01T17:27:07.154Z,84.90
2023-04-01T17:30:01.833Z,85.60
2023-04-01T17:32:40.865Z,86.10
2023-04-01T17:35:23.968Z,86.64
2023-04-01T17:38:14.486Z,86.65
2023-04-01T17:40:58.908Z,87.02
2023-04-01T17:43:32.829Z,87.43
2023-04-01T17:46:26.832Z,87.52
2023-04-01T17:49:19.362Z,87.31
2023-04-01T17:51:58.983Z,87.17
2023-04-01T17:54:47.125Z,87.44
2023-04-01T17:57:42.686Z,87.42
2023-04-01T18:00:14.439Z,87.42
2023-04-01T18:03:27.366Z,87.64
2023-04-01T18:06:20.085Z,87.44
2023-04-01T18:09:14.641Z,87.40
2023-04-01T18:11:45.548Z,87.45
2023-04-01T18:14:36.510Z,87.55
2023-04-01T18:17:40.151Z,87.61
2023-04-01T18:20:33.405Z,87.48
2023-04-01T18:23:28.277Z,87.62
2023-04-01T18:26:06.206Z,87.23
2023-04-01T18:28:41.241Z,87.28
2023-04-01T18:31:20.313Z,87.02
2023-04-01T18:33:54.263Z,87.29
2023-04-01T18:36:42.604Z,87.06
2023-04-01T18:39:26.063Z,87.07
2023-04-01T18:42:09.524Z,87.23
2023-04-01T18:44:44.030Z,86.90
2023-04-01T18:47:34.012Z,87.01
2023-04-01T18:50:36.950Z,86.62
2023-04-01T18:53:36.254Z,86.69
2023-04-01T18:56:07.883Z,86.78
2023-04-01T18:59:13.903Z,86.60
2023-04-01T19:02:00.678Z,86.34
2023-04-01T19:04:52.006Z,86.46
2023-04-01T19:07:38.321Z,86.31
2023-04-01T19:10:17.626Z,86.48
2023-04-01T19:13:07.104Z,86.36
2023-04-01T19:15:45.299Z,86.28
2023-04-01T19:18:22.611Z,86.38
2023-04-01T19:21:14.445Z,86.59
2023-04-01T19:24:08.206Z,86.55
2023-04-01T19:26:47.457Z,86.54
2023-04-01T19:29:25.382Z,86.19
2023-04-01T19:32:18.394Z,86.22
2023-04-01T19:35:04.806Z,85.80
2023-04-01T19:37:49.785Z,85.86
2023-04-01T19:40:49.066Z,85.55
2023-04-01T19:43:41.824Z,85.37
2023-04-01T19:46:13.077Z,85.20
2023-04-01T19:49:16.169Z,84.91
2023-04-01T19:51:55.890Z,85.02
2023-04-01T19:54:48.061Z,85.08
2023-04-01T19:57:41.595Z,85.06
2023-04-01T20:00:38.343Z,85.33
2023-04-01T20:03:27.733Z,85.47
2023-04-01T20:05:56.635Z,85.41
2023-04-01T20:08:37.625Z,85.35
2023-04-01T20:11:25.156Z,85.46
2023-04-01T20:13:59.801Z,85.50
2023-04-01T20:17:03.978Z,85.39
2023-04-01T20:19:36.491Z,85.54
2023-04-01T20:22:17.229Z,85.36
2023-04-01T20:24:48.294Z,85.54
2023-04-01T20:27:26.601Z,85.40
2023-04-01T20:30:27.917Z,85.41
2023-04-01T20:33:25.850Z,85.45
2023-04-01T20:36:47.211Z,85.30
2023-04-01T20:39:33.492Z,85.60
2023-04-01T20:42:07.312Z,85.43
2023-04-01T20:44:55.451Z,85.61
2023-04-01T20:47:48.518Z,85.33
2023-04-01T20:50:50.781Z,85.36
2023-04-01T20:53:23.056Z,85.57
2023-04-01T20:56:17.325Z,85.23
2023-04-01T20:59:21.055Z,85.45
2023-04-01T21:02:00.356Z,85.78
2023-04-01T21:04:52.183Z,85.77
2023-04-01T21:08:01.714Z,85.65
2023-04-01T21:10:51.513Z,85.69
2023-04-01T21:13:51.586Z,85.49
2023-04-01T21:16:29.675Z,85.85
2023-04-01T21:19:35.144Z,85.71
2023-04-01T21:22:41.296Z,85.65
2023-04-01T21:25:21.253Z,86.00
2023-04-01T21:28:17.174Z,86.11
2023-04-01T21:31:27.012Z,86.01
2023-04-01T21:34:16.442Z,86.38
2023-04-01T21:36:53.653Z,86.17
2023-04-01T21:39:52.277Z,86.34
2023-04-01T21:42:44.235Z,86.61
2023-04-01T21:45:34.261Z,86.65
2023-04-01T21:48:02.541Z,86.91
2023-04-01T21:50:43.278Z,87.01
2023-04-01T21:53:14.089Z,87.27
2023-04-01T21:55:57.649Z,87.04
2023-04-01T21:59:08.006Z,87.21
2023-04-01T22:02:14.267Z,87.38
2023-04-01T22:04:54.060Z,87.21
2023-04-01T22:07:31.063Z,87.07
2023-04-01T22:10:35.025Z,87.46
2023-04-01T22:13:29.710Z,87.19
2023-04-01T22:16:12.697Z,87.32
2023-04-01T22:18:51.551Z,87.27
2023-04-01T22:21:37.750Z,87.31
2023-04-01T22:24:11.343Z,87.26
2023-04-01T22:27:00.719Z,87.25
2023-04-01T22:30:10.154Z,87.38
2023-04-01T22:32:44.194Z,87.33
2023-04-01T22:35:24.114Z,87.20
2023-04-01T22:38:11.918Z,87.12
2023-04-01T22:41:10.175Z,87.45
2023-04-01T22:43:40.745Z,87.22
2023-04-01T22:46:17.824Z,87.07
2023-04-01T22:48:55.067Z,86.87
2023-04-01T22:51:29.404Z,86.60
2023-04-01T22:54:09.315Z,86.33
2023-04-01T22:56:41.891Z,86.36
2023-04-01T22:59:17.145Z,86.50
2023-04-01T23:01:55.401Z,86.41
2023-04-01T23:04:30.218Z,86.43
2023-04-01T23:07:04.803Z,86.09
2023-04-01T23:09:36.505Z,86.01
2023-04-01T23:12:32.754Z,85.86
2023-04-01T23:15:01.574Z,85.84
2023-04-01T23:17:40.417Z,85.67
2023-04-01T23:20:08.328Z,85.57
2023-04-01T23:22:51.562Z,85.63
2023-04-01T23:25:40.936Z,85.56
2023-04-01T23:28:47.768Z,85.45
2023-04-01T23:31:31.172Z,85.45
2023-04-01T23:34:07.027Z,85.31
2023-04-01T23:40:36.544Z,84.85
2023-04-01T23:43:15.046Z,84.76
2023-04-01T23:45:43.794Z,84.71
2023-04-01T23:52:55.032Z,84.11
2023-04-01T23:55:27.193Z,83.92
2023-04-01T23:58:16.414Z,84.23
